createdAt,value
2018-03-29T00:02:09.251Z,8.20
2018-03-29T00:04:42.873Z,7.23
2018-03-29T00:07:16.782Z,5.17
2018-03-29T00:09:50.577Z,4.20
2018-03-29T00:12:24.597Z,5.43
2018-03-29T00:14:58.232Z,6.70
2018-03-29T00:17:32.104Z,5.07
2018-03-29T00:20:06.161Z,5.57
2018-03-29T00:22:40.256Z,4.33
2018-03-29T00:25:14.815Z,4.87
2018-03-29T00:27:48.429Z,4.20
2018-03-29T00:30:22.937Z,4.83
2018-03-29T00:32:56.738Z,6.10
2018-03-29T00:35:30.459Z,5.50
2018-03-29T00:38:04.158Z,6.33
2018-03-29T00:40:37.899Z,11.13
2018-03-29T00:43:11.797Z,10.70
2018-03-29T00:45:45.582Z,8.80
2018-03-29T00:48:19.284Z,10.83
2018-03-29T00:50:52.861Z,7.03
2018-03-29T00:53:38.414Z,6.10
2018-03-29T00:56:12.180Z,7.77
2018-03-29T00:58:45.847Z,6.40
2018-03-29T01:01:19.605Z,6.00
2018-03-29T01:03:53.229Z,7.33
2018-03-29T01:06:27.035Z,6.67
2018-03-29T01:09:00.642Z,5.90
2018-03-29T01:11:34.379Z,5.50
2018-03-29T01:14:08.081Z,6.03
2018-03-29T01:16:41.783Z,4.83
2018-03-29T01:19:15.406Z,5.63
2018-03-29T01:21:48.930Z,6.90
2018-03-29T01:24:22.587Z,7.27
2018-03-29T01:26:56.202Z,9.47
2018-03-29T01:29:29.867Z,5.37
2018-03-29T01:32:03.630Z,6.10
2018-03-29T01:34:37.225Z,5.17
2018-03-29T01:37:10.927Z,5.47
2018-03-29T01:39:44.493Z,5.83
2018-03-29T01:42:18.313Z,5.13
2018-03-29T01:44:51.893Z,4.37
2018-03-29T01:47:26.658Z,4.40
2018-03-29T01:50:00.463Z,7.37
2018-03-29T01:52:34.158Z,5.57
2018-03-29T01:55:07.829Z,4.70
2018-03-29T01:57:41.539Z,4.20
2018-03-29T02:00:15.278Z,5.10
2018-03-29T02:02:49.082Z,5.60
2018-03-29T02:05:22.761Z,5.03
2018-03-29T02:07:56.690Z,11.23
2018-03-29T02:10:30.396Z,6.10
2018-03-29T02:13:04.158Z,5.43
2018-03-29T02:15:38.585Z,5.73
2018-03-29T02:18:12.768Z,5.60
2018-03-29T02:20:46.529Z,5.17
2018-03-29T02:23:20.935Z,5.30
2018-03-29T02:25:54.869Z,5.53
2018-03-29T02:28:28.538Z,7.70
2018-03-29T02:31:02.258Z,5.60
2018-03-29T02:33:36.108Z,5.70
2018-03-29T02:36:09.677Z,5.10
2018-03-29T02:38:43.255Z,5.83
2018-03-29T02:41:16.942Z,5.30
2018-03-29T02:43:50.674Z,5.70
2018-03-29T02:46:24.264Z,6.10
2018-03-29T02:48:57.982Z,5.23
2018-03-29T02:51:32.566Z,5.47
2018-03-29T02:54:06.351Z,6.97
2018-03-29T02:56:40.707Z,5.80
2018-03-29T02:59:14.763Z,6.73
2018-03-29T03:01:48.422Z,8.73
2018-03-29T03:04:22.361Z,5.37
2018-03-29T03:06:56.031Z,5.30
2018-03-29T03:09:29.647Z,6.17
2018-03-29T03:12:03.260Z,5.87
2018-03-29T03:14:37.057Z,5.90
2018-03-29T03:17:10.867Z,8.57
2018-03-29T03:19:44.558Z,5.57
2018-03-29T03:22:18.241Z,6.47
2018-03-29T03:24:52.082Z,5.40
2018-03-29T03:27:25.902Z,5.63
2018-03-29T03:29:59.600Z,5.80
2018-03-29T03:32:33.240Z,6.03
2018-03-29T03:35:06.911Z,5.70
2018-03-29T03:37:40.508Z,5.93
2018-03-29T03:40:14.220Z,5.77
2018-03-29T03:42:47.874Z,6.37
2018-03-29T03:45:21.612Z,5.83
2018-03-29T03:47:55.202Z,7.10
2018-03-29T03:50:28.802Z,7.00
2018-03-29T03:53:02.583Z,7.10
2018-03-29T03:55:36.314Z,6.70
2018-03-29T03:58:10.018Z,7.00
2018-03-29T04:00:44.415Z,8.03
2018-03-29T04:03:18.031Z,7.10
2018-03-29T04:05:52.718Z,7.43
2018-03-29T04:08:26.348Z,7.67
2018-03-29T04:10:59.982Z,9.17
2018-03-29T04:13:33.598Z,7.87
2018-03-29T04:16:07.249Z,8.10
2018-03-29T04:18:40.870Z,8.67
2018-03-29T04:21:14.779Z,7.43
2018-03-29T04:23:49.214Z,7.77
2018-03-29T04:26:23.112Z,7.73
2018-03-29T04:28:56.815Z,8.23
2018-03-29T04:31:30.647Z,7.87
2018-03-29T04:34:05.012Z,7.97
2018-03-29T04:36:38.751Z,9.53
2018-03-29T04:39:12.457Z,8.17
2018-03-29T04:41:46.359Z,9.40
2018-03-29T04:44:19.907Z,8.77
2018-03-29T04:46:53.531Z,8.80
2018-03-29T04:49:27.264Z,8.70
2018-03-29T04:52:00.845Z,8.23
2018-03-29T04:54:34.540Z,11.13
2018-03-29T04:57:08.366Z,11.77
2018-03-29T04:59:42.050Z,8.90
2018-03-29T05:02:17.202Z,9.80
2018-03-29T05:04:50.938Z,9.83
2018-03-29T05:07:24.493Z,9.33
2018-03-29T05:09:58.355Z,9.70
2018-03-29T05:12:31.942Z,10.13
2018-03-29T05:15:05.706Z,9.90
2018-03-29T05:17:39.218Z,9.23
2018-03-29T05:20:13.392Z,11.67
2018-03-29T05:22:46.988Z,11.87
2018-03-29T05:25:21.758Z,11.23
2018-03-29T05:27:56.446Z,9.67
2018-03-29T05:30:30.253Z,14.33
2018-03-29T05:33:03.974Z,10.37
2018-03-29T05:35:37.692Z,10.03
2018-03-29T05:38:11.338Z,10.80
2018-03-29T05:40:45.211Z,9.93
2018-03-29T05:43:18.789Z,8.83
2018-03-29T05:45:52.503Z,9.47
2018-03-29T05:48:26.214Z,8.77
2018-03-29T05:50:59.922Z,9.97
2018-03-29T05:53:33.704Z,8.50
2018-03-29T05:56:07.737Z,9.47
2018-03-29T05:58:41.569Z,10.03
2018-03-29T06:01:15.454Z,10.83
2018-03-29T06:03:49.055Z,13.07
2018-03-29T06:06:23.165Z,10.00
2018-03-29T06:08:56.871Z,11.07
2018-03-29T06:11:31.377Z,11.73
2018-03-29T06:14:06.963Z,10.63
2018-03-29T06:16:46.684Z,11.27
2018-03-29T06:19:20.577Z,13.23
2018-03-29T06:21:54.404Z,16.90
2018-03-29T06:24:28.123Z,12.80
2018-03-29T06:27:01.910Z,11.90
2018-03-29T06:29:35.672Z,11.10
2018-03-29T06:32:09.275Z,12.17
2018-03-29T06:34:43.009Z,12.00
2018-03-29T06:37:16.768Z,12.13
2018-03-29T06:39:50.495Z,13.37
2018-03-29T06:42:24.099Z,13.37
2018-03-29T06:44:57.922Z,14.53
2018-03-29T06:47:31.534Z,14.27
2018-03-29T06:50:05.600Z,16.00
2018-03-29T06:52:39.325Z,15.17
2018-03-29T06:55:13.155Z,17.13
2018-03-29T06:57:47.634Z,12.30
2018-03-29T07:00:21.434Z,15.47
2018-03-29T07:02:55.230Z,14.93
2018-03-29T07:05:28.986Z,12.33
2018-03-29T07:08:02.692Z,14.37
2018-03-29T07:10:36.886Z,14.80
2018-03-29T07:13:10.710Z,13.63
2018-03-29T07:15:44.615Z,13.27
2018-03-29T07:18:18.262Z,13.57
2018-03-29T07:20:52.050Z,13.30
2018-03-29T07:23:26.267Z,12.40
2018-03-29T07:26:00.253Z,12.47
2018-03-29T07:28:33.864Z,12.73
2018-03-29T07:31:07.526Z,15.17
2018-03-29T07:33:41.258Z,12.83
2018-03-29T07:36:15.214Z,12.33
2018-03-29T07:38:48.946Z,12.87
2018-03-29T07:41:22.685Z,12.27
2018-03-29T07:43:56.494Z,11.87
2018-03-29T07:46:30.097Z,13.77
2018-03-29T07:49:03.888Z,11.33
2018-03-29T07:51:38.511Z,11.53
2018-03-29T07:54:12.276Z,16.53
2018-03-29T07:56:46.154Z,13.60
2018-03-29T07:59:19.818Z,10.87
2018-03-29T08:01:53.526Z,10.80
2018-03-29T08:04:27.242Z,13.67
2018-03-29T08:07:01.750Z,12.27
2018-03-29T08:09:36.138Z,12.43
2018-03-29T08:12:09.791Z,12.03
2018-03-29T08:14:43.684Z,13.37
2018-03-29T08:17:17.513Z,9.27
2018-03-29T08:19:51.239Z,11.00
2018-03-29T08:22:25.214Z,10.83
2018-03-29T08:24:59.009Z,13.07
2018-03-29T08:27:32.699Z,13.03
2018-03-29T08:30:06.596Z,14.33
2018-03-29T08:32:40.310Z,13.10
2018-03-29T08:35:14.022Z,17.27
2018-03-29T08:37:47.694Z,17.67
2018-03-29T08:40:21.371Z,13.30
2018-03-29T08:42:55.966Z,12.57
2018-03-29T08:45:30.390Z,14.13
2018-03-29T08:48:04.440Z,13.93
2018-03-29T08:50:38.085Z,15.33
2018-03-29T08:53:11.687Z,12.90
2018-03-29T08:55:45.494Z,14.47
2018-03-29T08:58:19.414Z,15.13
2018-03-29T09:00:53.005Z,16.13
2018-03-29T09:03:26.810Z,11.70
2018-03-29T09:06:00.527Z,13.93
2018-03-29T09:08:34.298Z,13.67
2018-03-29T09:11:09.152Z,13.93
2018-03-29T09:13:43.165Z,14.03
2018-03-29T09:16:17.749Z,11.90
2018-03-29T09:18:52.393Z,11.07
2018-03-29T09:21:26.790Z,9.87
2018-03-29T09:24:00.587Z,11.03
2018-03-29T09:26:34.379Z,12.37
2018-03-29T09:29:09.209Z,11.60
2018-03-29T09:31:42.875Z,12.53
2018-03-29T09:34:16.715Z,13.27
2018-03-29T09:36:50.563Z,14.90
2018-03-29T09:39:24.381Z,16.27
2018-03-29T09:41:57.984Z,13.77
2018-03-29T09:44:31.898Z,26.53
2018-03-29T09:47:06.526Z,11.97
2018-03-29T09:49:40.535Z,12.43
2018-03-29T09:52:14.026Z,18.30
2018-03-29T09:54:47.705Z,15.10
2018-03-29T09:57:21.397Z,16.23
2018-03-29T09:59:55.178Z,15.80
2018-03-29T10:02:31.856Z,14.83
2018-03-29T10:05:05.882Z,9.47
2018-03-29T10:07:39.524Z,9.67
2018-03-29T10:10:13.135Z,7.77
2018-03-29T10:12:46.921Z,7.63
2018-03-29T10:15:20.522Z,10.10
2018-03-29T10:17:54.144Z,8.00
2018-03-29T10:20:27.721Z,8.87
2018-03-29T10:23:01.566Z,8.87
2018-03-29T10:25:35.307Z,10.37
2018-03-29T10:28:08.854Z,8.13
2018-03-29T10:30:42.835Z,11.37
2018-03-29T10:33:16.583Z,7.77
2018-03-29T10:35:50.645Z,10.73
2018-03-29T10:38:25.061Z,15.23
2018-03-29T10:40:58.800Z,15.90
2018-03-29T10:43:32.412Z,30.17
2018-03-29T10:46:06.198Z,21.63
2018-03-29T10:48:39.942Z,9.40
2018-03-29T10:51:14.518Z,10.37
2018-03-29T10:53:48.253Z,6.37
2018-03-29T10:56:21.932Z,7.32
2018-03-29T10:58:57.481Z,5.13
2018-03-29T11:01:31.608Z,6.67
2018-03-29T11:04:05.286Z,7.47
2018-03-29T11:06:39.102Z,11.37
2018-03-29T11:09:12.706Z,5.60
2018-03-29T11:11:46.519Z,3.87
2018-03-29T11:14:20.052Z,5.60
2018-03-29T11:16:53.772Z,12.07
2018-03-29T11:19:27.483Z,6.57
2018-03-29T11:22:01.085Z,7.47
2018-03-29T11:24:35.531Z,4.23
2018-03-29T11:27:09.255Z,4.27
2018-03-29T11:29:42.956Z,8.53
2018-03-29T11:32:16.765Z,10.00
2018-03-29T11:34:50.355Z,8.50
2018-03-29T11:37:24.018Z,4.83
2018-03-29T11:39:57.751Z,6.17
2018-03-29T11:42:31.465Z,10.50
2018-03-29T11:45:05.002Z,5.80
2018-03-29T11:47:38.880Z,5.43
2018-03-29T11:50:12.782Z,8.07
2018-03-29T11:52:47.263Z,4.53
2018-03-29T11:55:20.985Z,4.97
2018-03-29T11:57:54.977Z,6.57
2018-03-29T12:00:28.690Z,6.17
2018-03-29T12:03:02.710Z,6.77
2018-03-29T12:05:36.436Z,11.50
2018-03-29T12:08:11.069Z,11.87
2018-03-29T12:10:44.714Z,22.00
2018-03-29T12:15:19.230Z,28.73
2018-03-29T12:17:47.435Z,41.97
2018-03-29T12:20:15.676Z,38.37
2018-03-29T12:22:43.914Z,11.57
2018-03-29T12:25:12.137Z,15.43
2018-03-29T12:27:40.338Z,14.47
2018-03-29T12:30:09.556Z,7.20
2018-03-29T12:32:37.765Z,9.63
2018-03-29T12:35:05.996Z,6.97
2018-03-29T12:37:34.960Z,5.07
2018-03-29T12:40:03.467Z,11.30
2018-03-29T12:42:32.511Z,11.67
2018-03-29T12:45:01.509Z,8.70
2018-03-29T12:47:30.442Z,13.37
2018-03-29T12:49:59.431Z,6.23
2018-03-29T12:52:28.429Z,7.03
2018-03-29T12:55:08.541Z,4.67
2018-03-29T12:57:48.718Z,6.00
2018-03-29T13:00:16.949Z,3.90
2018-03-29T13:02:45.170Z,5.83
2018-03-29T13:05:13.399Z,5.05
2018-03-29T13:07:41.926Z,5.30
2018-03-29T13:10:10.393Z,5.30
2018-03-29T13:12:38.671Z,5.03
2018-03-29T13:15:07.281Z,4.63
2018-03-29T13:17:36.262Z,5.63
2018-03-29T13:20:04.931Z,7.13
2018-03-29T13:22:33.164Z,3.13
2018-03-29T13:25:01.370Z,3.40
2018-03-29T13:27:29.658Z,6.07
2018-03-29T13:29:57.874Z,3.47
2018-03-29T13:32:27.029Z,10.63
2018-03-29T13:34:55.242Z,3.50
2018-03-29T13:37:23.473Z,5.43
2018-03-29T13:39:51.905Z,3.43
2018-03-29T13:42:20.095Z,3.37
2018-03-29T13:44:48.306Z,5.60
2018-03-29T13:47:18.175Z,10.13
2018-03-29T13:49:47.026Z,2.73
2018-03-29T13:52:15.241Z,3.70
2018-03-29T13:54:43.445Z,4.53
2018-03-29T13:57:11.655Z,5.93
2018-03-29T13:59:40.630Z,5.77
2018-03-29T14:02:09.147Z,6.73
2018-03-29T14:04:38.146Z,5.77
2018-03-29T14:07:07.142Z,3.90
2018-03-29T14:09:35.430Z,5.80
2018-03-29T14:12:03.652Z,3.63
2018-03-29T14:14:32.172Z,4.43
2018-03-29T14:17:01.159Z,3.77
2018-03-29T14:19:30.125Z,5.37
2018-03-29T14:21:59.187Z,3.40
2018-03-29T14:24:27.386Z,4.93
2018-03-29T14:26:55.614Z,3.67
2018-03-29T14:29:23.831Z,3.90
2018-03-29T14:31:52.310Z,2.93
2018-03-29T14:34:20.519Z,2.87
2018-03-29T14:36:49.510Z,3.60
2018-03-29T14:39:18.492Z,3.50
2018-03-29T14:41:47.467Z,4.23
2018-03-29T14:44:15.774Z,4.80
2018-03-29T14:46:44.782Z,2.60
2018-03-29T14:49:13.046Z,7.03
2018-03-29T14:51:41.246Z,3.47
2018-03-29T14:54:09.621Z,5.03
2018-03-29T14:56:37.822Z,5.07
2018-03-29T14:59:06.248Z,5.17
2018-03-29T15:01:35.240Z,3.27
2018-03-29T15:04:04.216Z,4.80
2018-03-29T15:06:32.463Z,3.77
2018-03-29T15:09:00.690Z,4.67
2018-03-29T15:11:28.903Z,6.97
2018-03-29T15:13:58.824Z,4.10
2018-03-29T15:16:27.673Z,3.97
2018-03-29T15:18:55.907Z,3.67
2018-03-29T15:21:24.133Z,3.43
2018-03-29T15:23:52.361Z,3.90
2018-03-29T15:26:20.578Z,4.50
2018-03-29T15:28:48.814Z,3.23
2018-03-29T15:31:17.802Z,4.93
2018-03-29T15:33:46.002Z,2.93
2018-03-29T15:36:15.032Z,4.40
2018-03-29T15:38:43.282Z,4.07
2018-03-29T15:41:11.634Z,3.10
2018-03-29T15:43:39.813Z,4.03
2018-03-29T15:46:08.035Z,3.03
2018-03-29T15:48:36.246Z,3.93
2018-03-29T15:51:04.562Z,7.20
2018-03-29T15:53:32.779Z,5.57
2018-03-29T15:56:01.015Z,5.20
2018-03-29T15:58:29.381Z,3.57
2018-03-29T16:00:59.150Z,4.10
2018-03-29T16:03:27.364Z,6.00
2018-03-29T16:05:56.347Z,3.00
2018-03-29T16:08:24.578Z,12.57
2018-03-29T16:10:52.796Z,4.50
2018-03-29T16:13:21.806Z,4.10
2018-03-29T16:15:50.016Z,4.77
2018-03-29T16:18:18.234Z,2.40
2018-03-29T16:20:47.248Z,2.43
2018-03-29T16:23:17.105Z,3.37
2018-03-29T16:25:45.321Z,5.13
2018-03-29T16:28:14.313Z,5.10
2018-03-29T16:30:43.297Z,6.43
2018-03-29T16:33:12.299Z,3.20
2018-03-29T16:35:41.305Z,4.77
2018-03-29T16:38:10.287Z,2.70
2018-03-29T16:40:39.282Z,5.03
2018-03-29T16:43:08.644Z,3.10
2018-03-29T16:45:37.659Z,2.53
2018-03-29T16:48:05.922Z,3.03
2018-03-29T16:50:34.135Z,4.23
2018-03-29T16:53:02.342Z,3.90
2018-03-29T16:55:30.549Z,5.33
2018-03-29T16:57:59.538Z,2.63
2018-03-29T17:00:27.859Z,3.10
2018-03-29T17:02:56.135Z,3.33
2018-03-29T17:05:24.341Z,3.87
2018-03-29T17:07:52.560Z,5.93
2018-03-29T17:10:21.541Z,4.70
2018-03-29T17:12:50.527Z,4.43
2018-03-29T17:15:19.663Z,3.90
2018-03-29T17:17:48.633Z,3.90
2018-03-29T17:20:17.649Z,4.47
2018-03-29T17:22:45.868Z,5.37
2018-03-29T17:25:14.067Z,5.83
2018-03-29T17:27:42.370Z,5.67
2018-03-29T17:30:10.904Z,5.73
2018-03-29T17:32:39.147Z,5.00
2018-03-29T17:35:08.536Z,6.87
2018-03-29T17:37:37.516Z,7.00
2018-03-29T17:40:05.999Z,5.63
2018-03-29T17:42:35.222Z,3.13
2018-03-29T17:45:03.435Z,5.00
2018-03-29T17:47:31.644Z,6.07
2018-03-29T17:50:00.635Z,3.77
2018-03-29T17:52:29.610Z,4.13
2018-03-29T17:54:58.681Z,4.97
2018-03-29T17:57:26.945Z,4.17
2018-03-29T17:59:55.271Z,3.10
2018-03-29T18:02:24.263Z,5.53
2018-03-29T18:04:53.221Z,3.40
2018-03-29T18:07:21.438Z,5.17
2018-03-29T18:09:49.673Z,3.80
2018-03-29T18:12:17.897Z,4.13
2018-03-29T18:14:46.118Z,5.00
2018-03-29T18:17:14.334Z,3.07
2018-03-29T18:19:42.676Z,3.27
2018-03-29T18:22:11.003Z,5.77
2018-03-29T18:24:39.209Z,5.93
2018-03-29T18:27:07.430Z,3.37
2018-03-29T18:29:36.413Z,4.03
2018-03-29T18:32:05.378Z,5.17
2018-03-29T18:34:33.764Z,5.20
2018-03-29T18:37:01.941Z,7.47
2018-03-29T18:39:30.162Z,4.87
2018-03-29T18:41:58.381Z,8.53
2018-03-29T18:44:26.609Z,13.50
2018-03-29T18:46:54.830Z,5.10
2018-03-29T18:49:23.146Z,4.40
2018-03-29T18:51:52.271Z,3.67
2018-03-29T18:54:20.486Z,4.50
2018-03-29T18:56:48.774Z,7.80
2018-03-29T18:59:17.027Z,6.67
2018-03-29T19:01:45.259Z,7.43
2018-03-29T19:04:13.543Z,9.77
2018-03-29T19:06:41.793Z,5.17
2018-03-29T19:09:10.818Z,7.70
2018-03-29T19:11:39.791Z,5.87
2018-03-29T19:14:08.060Z,7.10
2018-03-29T19:16:36.267Z,5.77
2018-03-29T19:19:07.379Z,6.43
2018-03-29T19:21:35.549Z,5.43
2018-03-29T19:24:04.544Z,5.30
2018-03-29T19:26:33.576Z,6.53
2018-03-29T19:29:02.019Z,5.10
2018-03-29T19:31:30.217Z,7.10
2018-03-29T19:33:58.424Z,6.77
2018-03-29T19:36:26.649Z,8.23
2018-03-29T19:38:55.068Z,8.03
2018-03-29T19:41:23.293Z,27.73
2018-03-29T19:43:52.294Z,10.50
2018-03-29T19:46:20.502Z,9.20
2018-03-29T19:48:57.383Z,13.03
2018-03-29T19:51:25.570Z,10.40
2018-03-29T19:53:53.770Z,9.00
2018-03-29T19:56:22.759Z,8.03
2018-03-29T19:58:50.979Z,10.30
2018-03-29T20:01:19.201Z,6.17
2018-03-29T20:03:47.418Z,6.97
2018-03-29T20:06:16.524Z,7.83
2018-03-29T20:08:44.734Z,6.77
2018-03-29T20:11:12.976Z,7.23
2018-03-29T20:13:41.197Z,7.17
2018-03-29T20:16:09.422Z,8.57
2018-03-29T20:18:37.617Z,7.37
2018-03-29T20:21:05.822Z,5.33
2018-03-29T20:23:34.832Z,6.40
2018-03-29T20:26:04.026Z,8.17
2018-03-29T20:28:33.002Z,6.53
2018-03-29T20:31:02.000Z,13.37
2018-03-29T20:33:31.002Z,10.10
2018-03-29T20:36:00.007Z,13.33
2018-03-29T20:38:28.400Z,9.83
2018-03-29T20:40:56.598Z,7.50
2018-03-29T20:43:24.791Z,9.60
2018-03-29T20:45:53.097Z,10.60
2018-03-29T20:48:22.102Z,15.90
2018-03-29T20:50:50.640Z,14.33
2018-03-29T20:53:18.837Z,8.53
2018-03-29T20:55:47.821Z,8.70
2018-03-29T20:58:16.117Z,11.90
2018-03-29T21:00:45.110Z,10.43
2018-03-29T21:03:15.214Z,10.47
2018-03-29T21:05:43.445Z,10.63
2018-03-29T21:08:11.658Z,13.30
2018-03-29T21:10:39.958Z,9.13
2018-03-29T21:13:08.935Z,10.60
2018-03-29T21:15:37.230Z,12.33
2018-03-29T21:18:05.537Z,10.37
2018-03-29T21:20:33.750Z,8.93
2018-03-29T21:23:02.733Z,13.67
2018-03-29T21:25:31.031Z,12.53
2018-03-29T21:28:00.029Z,12.77
2018-03-29T21:30:29.010Z,14.93
2018-03-29T21:32:57.274Z,14.07
2018-03-29T21:35:25.517Z,10.17
2018-03-29T21:37:53.808Z,15.53
2018-03-29T21:40:22.845Z,20.73
2018-03-29T21:42:51.870Z,12.60
2018-03-29T21:45:20.110Z,22.17
2018-03-29T21:47:49.087Z,30.93
2018-03-29T21:50:17.374Z,15.60
2018-03-29T21:52:46.374Z,18.27
2018-03-29T21:55:15.362Z,16.30
2018-03-29T21:57:44.626Z,18.20
2018-03-29T22:00:13.013Z,13.10
2018-03-29T22:02:41.365Z,10.73
2018-03-29T22:05:09.714Z,17.53
2018-03-29T22:07:38.021Z,13.63
2018-03-29T22:10:07.493Z,17.10
2018-03-29T22:12:36.493Z,18.07
2018-03-29T22:15:04.765Z,11.17
2018-03-29T22:17:33.143Z,11.17
2018-03-29T22:20:01.680Z,12.73
2018-03-29T22:22:29.980Z,11.30
2018-03-29T22:24:59.018Z,14.27
2018-03-29T22:27:27.258Z,12.60
2018-03-29T22:29:56.367Z,16.37
2018-03-29T22:32:24.624Z,9.23
2018-03-29T22:34:52.990Z,11.60
2018-03-29T22:37:21.281Z,10.77
2018-03-29T22:39:50.254Z,15.60
2018-03-29T22:42:18.555Z,18.23
2018-03-29T22:44:46.773Z,12.90
2018-03-29T22:47:15.002Z,15.53
2018-03-29T22:49:43.991Z,10.93
2018-03-29T22:52:12.267Z,12.90
2018-03-29T22:54:41.268Z,14.30
2018-03-29T22:57:10.261Z,17.60
2018-03-29T22:59:39.331Z,23.07
2018-03-29T23:02:07.544Z,14.73
2018-03-29T23:04:35.754Z,14.63
2018-03-29T23:07:03.981Z,14.87
2018-03-29T23:09:32.965Z,16.63
2018-03-29T23:12:02.049Z,21.30
2018-03-29T23:14:31.051Z,15.53
2018-03-29T23:17:00.041Z,10.10
2018-03-29T23:19:29.027Z,12.50
2018-03-29T23:21:58.026Z,19.47
2018-03-29T23:24:27.028Z,19.83
2018-03-29T23:26:56.096Z,13.43
2018-03-29T23:29:24.303Z,20.37
2018-03-29T23:31:52.582Z,11.17
2018-03-29T23:34:20.792Z,16.57
2018-03-29T23:36:49.050Z,11.17
2018-03-29T23:39:17.290Z,8.70
2018-03-29T23:41:46.294Z,14.87
2018-03-29T23:44:15.290Z,16.53
2018-03-29T23:46:43.516Z,17.83
2018-03-29T23:49:11.853Z,19.17
2018-03-29T23:51:40.060Z,19.50
2018-03-29T23:54:08.281Z,20.93
2018-03-29T23:56:37.270Z,14.30
2018-03-29T23:59:06.270Z,16.83
